sensor_id;sensor_type;location;lat;lon;timestamp;P1;durP1;ratioP1;P2;durP2;ratioP2
66721;SDS011;53633;49.932;10.884;2022-12-29T00:00:09;5.63;;;1.15;;
66721;SDS011;53633;49.932;10.884;2022-12-29T00:02:38;5.18;;;1.35;;
66721;SDS011;53633;49.932;10.884;2022-12-29T00:05:06;6.10;;;1.60;;
66721;SDS011;53633;49.932;10.884;2022-12-29T00:07:33;4.43;;;1.15;;
66721;SDS011;53633;49.932;10.884;2022-12-29T00:09:59;5.47;;;1.10;;
66721;SDS011;53633;49.932;10.884;2022-12-29T00:12:26;4.13;;;1.20;;
66721;SDS011;53633;49.932;10.884;2022-12-29T00:14:53;5.20;;;1.40;;
66721;SDS011;53633;49.932;10.884;2022-12-29T00:17:20;4.20;;;1.00;;
66721;SDS011;53633;49.932;10.884;2022-12-29T00:19:48;4.72;;;1.15;;
66721;SDS011;53633;49.932;10.884;2022-12-29T00:22:15;4.30;;;1.30;;
66721;SDS011;53633;49.932;10.884;2022-12-29T00:24:43;4.28;;;1.13;;
66721;SDS011;53633;49.932;10.884;2022-12-29T00:27:11;6.32;;;1.30;;
66721;SDS011;53633;49.932;10.884;2022-12-29T00:29:39;5.30;;;1.20;;
66721;SDS011;53633;49.932;10.884;2022-12-29T00:32:06;4.55;;;1.10;;
66721;SDS011;53633;49.932;10.884;2022-12-29T00:34:35;4.00;;;1.10;;
66721;SDS011;53633;49.932;10.884;2022-12-29T00:37:03;5.57;;;1.60;;
66721;SDS011;53633;49.932;10.884;2022-12-29T00:39:31;4.38;;;1.13;;
66721;SDS011;53633;49.932;10.884;2022-12-29T00:42:02;5.70;;;1.20;;
66721;SDS011;53633;49.932;10.884;2022-12-29T00:44:29;5.13;;;1.42;;
66721;SDS011;53633;49.932;10.884;2022-12-29T00:46:56;5.53;;;1.27;;
66721;SDS011;53633;49.932;10.884;2022-12-29T00:49:23;4.25;;;1.05;;
66721;SDS011;53633;49.932;10.884;2022-12-29T00:51:50;4.95;;;1.20;;
66721;SDS011;53633;49.932;10.884;2022-12-29T00:54:19;5.82;;;1.45;;
66721;SDS011;53633;49.932;10.884;2022-12-29T00:56:46;4.63;;;1.15;;
66721;SDS011;53633;49.932;10.884;2022-12-29T00:59:13;3.90;;;1.00;;
66721;SDS011;53633;49.932;10.884;2022-12-29T01:01:40;5.40;;;1.30;;
66721;SDS011;53633;49.932;10.884;2022-12-29T01:04:07;4.43;;;1.33;;
66721;SDS011;53633;49.932;10.884;2022-12-29T01:06:37;5.93;;;1.30;;
66721;SDS011;53633;49.932;10.884;2022-12-29T01:09:05;4.20;;;1.00;;
66721;SDS011;53633;49.932;10.884;2022-12-29T01:11:35;5.20;;;1.40;;
66721;SDS011;53633;49.932;10.884;2022-12-29T01:14:01;5.75;;;1.13;;
66721;SDS011;53633;49.932;10.884;2022-12-29T01:16:28;4.80;;;1.40;;
66721;SDS011;53633;49.932;10.884;2022-12-29T01:18:55;4.45;;;0.80;;
66721;SDS011;53633;49.932;10.884;2022-12-29T01:21:22;5.57;;;1.40;;
66721;SDS011;53633;49.932;10.884;2022-12-29T01:23:49;3.60;;;0.90;;
66721;SDS011;53633;49.932;10.884;2022-12-29T01:26:16;4.50;;;1.00;;
66721;SDS011;53633;49.932;10.884;2022-12-29T01:28:45;4.63;;;1.20;;
66721;SDS011;53633;49.932;10.884;2022-12-29T01:31:13;3.97;;;1.10;;
66721;SDS011;53633;49.932;10.884;2022-12-29T01:33:40;4.00;;;1.10;;
66721;SDS011;53633;49.932;10.884;2022-12-29T01:36:09;5.33;;;1.20;;
66721;SDS011;53633;49.932;10.884;2022-12-29T01:38:38;4.15;;;0.85;;
66721;SDS011;53633;49.932;10.884;2022-12-29T01:41:05;3.97;;;1.10;;
66721;SDS011;53633;49.932;10.884;2022-12-29T01:43:40;3.78;;;0.65;;
66721;SDS011;53633;49.932;10.884;2022-12-29T01:46:11;4.05;;;0.90;;
66721;SDS011;53633;49.932;10.884;2022-12-29T01:48:44;5.33;;;0.97;;
66721;SDS011;53633;49.932;10.884;2022-12-29T01:51:12;4.10;;;1.10;;
66721;SDS011;53633;49.932;10.884;2022-12-29T01:53:39;3.63;;;1.10;;
66721;SDS011;53633;49.932;10.884;2022-12-29T01:56:06;4.30;;;1.08;;
66721;SDS011;53633;49.932;10.884;2022-12-29T01:58:38;4.47;;;1.30;;
66721;SDS011;53633;49.932;10.884;2022-12-29T02:01:07;3.73;;;1.20;;
66721;SDS011;53633;49.932;10.884;2022-12-29T02:03:36;3.55;;;0.80;;
66721;SDS011;53633;49.932;10.884;2022-12-29T02:06:04;5.00;;;0.80;;
66721;SDS011;53633;49.932;10.884;2022-12-29T02:08:37;4.78;;;1.30;;
66721;SDS011;53633;49.932;10.884;2022-12-29T02:11:04;5.40;;;1.13;;
66721;SDS011;53633;49.932;10.884;2022-12-29T02:13:32;4.67;;;1.17;;
66721;SDS011;53633;49.932;10.884;2022-12-29T02:16:01;4.13;;;0.90;;
66721;SDS011;53633;49.932;10.884;2022-12-29T02:18:40;7.07;;;1.00;;
66721;SDS011;53633;49.932;10.884;2022-12-29T02:30:31;4.65;;;1.00;;
66721;SDS011;53633;49.932;10.884;2022-12-29T02:33:13;3.97;;;1.10;;
66721;SDS011;53633;49.932;10.884;2022-12-29T02:35:52;3.90;;;0.80;;
66721;SDS011;53633;49.932;10.884;2022-12-29T02:38:25;5.43;;;1.27;;
66721;SDS011;53633;49.932;10.884;2022-12-29T02:41:02;3.83;;;1.00;;
66721;SDS011;53633;49.932;10.884;2022-12-29T02:43:36;4.05;;;0.90;;
66721;SDS011;53633;49.932;10.884;2022-12-29T02:46:10;3.97;;;1.05;;
66721;SDS011;53633;49.932;10.884;2022-12-29T02:48:45;3.70;;;0.95;;
66721;SDS011;53633;49.932;10.884;2022-12-29T02:51:18;3.50;;;0.90;;
66721;SDS011;53633;49.932;10.884;2022-12-29T02:53:49;4.77;;;1.03;;
66721;SDS011;53633;49.932;10.884;2022-12-29T02:56:18;3.75;;;1.00;;
66721;SDS011;53633;49.932;10.884;2022-12-29T02:58:45;3.60;;;1.00;;
66721;SDS011;53633;49.932;10.884;2022-12-29T03:01:20;3.25;;;0.68;;
66721;SDS011;53633;49.932;10.884;2022-12-29T03:04:01;3.90;;;0.90;;
66721;SDS011;53633;49.932;10.884;2022-12-29T03:06:35;3.00;;;0.80;;
66721;SDS011;53633;49.932;10.884;2022-12-29T03:09:14;4.53;;;1.10;;
66721;SDS011;53633;49.932;10.884;2022-12-29T03:11:50;4.10;;;0.82;;
66721;SDS011;53633;49.932;10.884;2022-12-29T03:14:25;4.35;;;1.00;;
66721;SDS011;53633;49.932;10.884;2022-12-29T03:16:59;3.80;;;0.80;;
66721;SDS011;53633;49.932;10.884;2022-12-29T03:19:30;4.90;;;0.90;;
66721;SDS011;53633;49.932;10.884;2022-12-29T03:22:01;4.75;;;0.90;;
66721;SDS011;53633;49.932;10.884;2022-12-29T03:24:36;4.15;;;0.85;;
66721;SDS011;53633;49.932;10.884;2022-12-29T03:27:06;3.83;;;0.80;;
66721;SDS011;53633;49.932;10.884;2022-12-29T03:29:38;4.85;;;1.02;;
66721;SDS011;53633;49.932;10.884;2022-12-29T03:32:09;2.67;;;0.70;;
66721;SDS011;53633;49.932;10.884;2022-12-29T03:34:39;3.35;;;0.90;;
66721;SDS011;53633;49.932;10.884;2022-12-29T03:37:08;6.03;;;1.00;;
66721;SDS011;53633;49.932;10.884;2022-12-29T03:39:37;2.63;;;0.65;;
66721;SDS011;53633;49.932;10.884;2022-12-29T03:42:04;3.15;;;0.70;;
66721;SDS011;53633;49.932;10.884;2022-12-29T03:44:36;3.83;;;0.80;;
66721;SDS011;53633;49.932;10.884;2022-12-29T03:47:05;5.13;;;0.80;;
66721;SDS011;53633;49.932;10.884;2022-12-29T03:49:34;3.67;;;0.90;;
66721;SDS011;53633;49.932;10.884;2022-12-29T03:52:00;3.10;;;0.80;;
66721;SDS011;53633;49.932;10.884;2022-12-29T03:54:27;3.22;;;0.70;;
66721;SDS011;53633;49.932;10.884;2022-12-29T03:56:54;3.30;;;0.70;;
66721;SDS011;53633;49.932;10.884;2022-12-29T03:59:21;2.85;;;0.70;;
66721;SDS011;53633;49.932;10.884;2022-12-29T04:01:47;3.08;;;0.80;;
66721;SDS011;53633;49.932;10.884;2022-12-29T04:04:14;4.13;;;0.73;;
66721;SDS011;53633;49.932;10.884;2022-12-29T04:06:44;3.13;;;0.75;;
66721;SDS011;53633;49.932;10.884;2022-12-29T04:09:11;5.87;;;0.90;;
66721;SDS011;53633;49.932;10.884;2022-12-29T04:11:37;4.65;;;0.80;;
66721;SDS011;53633;49.932;10.884;2022-12-29T04:14:04;3.13;;;0.60;;
66721;SDS011;53633;49.932;10.884;2022-12-29T04:16:31;4.50;;;0.80;;
66721;SDS011;53633;49.932;10.884;2022-12-29T04:18:58;2.92;;;0.70;;
66721;SDS011;53633;49.932;10.884;2022-12-29T04:21:25;3.20;;;0.70;;
66721;SDS011;53633;49.932;10.884;2022-12-29T04:23:53;3.92;;;0.85;;
66721;SDS011;53633;49.932;10.884;2022-12-29T04:26:20;7.20;;;0.80;;
66721;SDS011;53633;49.932;10.884;2022-12-29T04:28:46;3.88;;;0.70;;
66721;SDS011;53633;49.932;10.884;2022-12-29T04:31:13;3.83;;;0.70;;
66721;SDS011;53633;49.932;10.884;2022-12-29T04:33:40;3.27;;;0.70;;
66721;SDS011;53633;49.932;10.884;2022-12-29T04:36:07;2.83;;;0.60;;
66721;SDS011;53633;49.932;10.884;2022-12-29T04:38:34;4.22;;;0.70;;
66721;SDS011;53633;49.932;10.884;2022-12-29T04:41:02;3.88;;;1.00;;
66721;SDS011;53633;49.932;10.884;2022-12-29T04:43:30;3.35;;;0.90;;
66721;SDS011;53633;49.932;10.884;2022-12-29T04:45:57;3.33;;;0.70;;
66721;SDS011;53633;49.932;10.884;2022-12-29T04:48:23;5.47;;;0.82;;
66721;SDS011;53633;49.932;10.884;2022-12-29T04:50:50;3.55;;;0.70;;
66721;SDS011;53633;49.932;10.884;2022-12-29T04:53:17;3.15;;;0.73;;
66721;SDS011;53633;49.932;10.884;2022-12-29T04:55:44;3.63;;;0.85;;
66721;SDS011;53633;49.932;10.884;2022-12-29T04:58:15;4.37;;;1.00;;
66721;SDS011;53633;49.932;10.884;2022-12-29T05:00:48;3.63;;;0.93;;
66721;SDS011;53633;49.932;10.884;2022-12-29T05:03:15;5.00;;;0.80;;
66721;SDS011;53633;49.932;10.884;2022-12-29T05:05:43;4.15;;;0.98;;
66721;SDS011;53633;49.932;10.884;2022-12-29T05:08:10;5.85;;;0.90;;
66721;SDS011;53633;49.932;10.884;2022-12-29T05:10:37;3.10;;;0.67;;
66721;SDS011;53633;49.932;10.884;2022-12-29T05:13:03;2.72;;;0.70;;
66721;SDS011;53633;49.932;10.884;2022-12-29T05:15:32;4.47;;;0.90;;
66721;SDS011;53633;49.932;10.884;2022-12-29T05:17:58;5.47;;;0.82;;
66721;SDS011;53633;49.932;10.884;2022-12-29T05:20:25;4.50;;;1.00;;
66721;SDS011;53633;49.932;10.884;2022-12-29T05:22:52;3.87;;;0.93;;
66721;SDS011;53633;49.932;10.884;2022-12-29T05:25:19;5.95;;;0.90;;
66721;SDS011;53633;49.932;10.884;2022-12-29T05:27:46;4.60;;;0.80;;
66721;SDS011;53633;49.932;10.884;2022-12-29T05:30:12;3.05;;;0.77;;
66721;SDS011;53633;49.932;10.884;2022-12-29T05:32:40;4.75;;;0.80;;
66721;SDS011;53633;49.932;10.884;2022-12-29T05:35:08;3.43;;;0.80;;
66721;SDS011;53633;49.932;10.884;2022-12-29T05:37:35;3.83;;;0.90;;
66721;SDS011;53633;49.932;10.884;2022-12-29T05:40:01;3.95;;;0.80;;
66721;SDS011;53633;49.932;10.884;2022-12-29T05:42:29;3.70;;;0.70;;
66721;SDS011;53633;49.932;10.884;2022-12-29T05:44:56;3.60;;;0.88;;
66721;SDS011;53633;49.932;10.884;2022-12-29T05:47:22;3.60;;;0.90;;
66721;SDS011;53633;49.932;10.884;2022-12-29T05:49:50;4.00;;;1.08;;
66721;SDS011;53633;49.932;10.884;2022-12-29T05:52:17;4.20;;;0.75;;
66721;SDS011;53633;49.932;10.884;2022-12-29T05:54:44;3.55;;;0.77;;
66721;SDS011;53633;49.932;10.884;2022-12-29T05:57:11;3.55;;;0.80;;
66721;SDS011;53633;49.932;10.884;2022-12-29T05:59:37;6.50;;;0.97;;
66721;SDS011;53633;49.932;10.884;2022-12-29T06:02:04;3.50;;;1.02;;
66721;SDS011;53633;49.932;10.884;2022-12-29T06:04:31;4.22;;;1.23;;
66721;SDS011;53633;49.932;10.884;2022-12-29T06:06:59;4.38;;;0.90;;
66721;SDS011;53633;49.932;10.884;2022-12-29T06:09:26;4.07;;;0.95;;
66721;SDS011;53633;49.932;10.884;2022-12-29T06:11:53;4.20;;;1.23;;
66721;SDS011;53633;49.932;10.884;2022-12-29T06:14:19;3.33;;;0.70;;
66721;SDS011;53633;49.932;10.884;2022-12-29T06:16:46;4.22;;;0.90;;
66721;SDS011;53633;49.932;10.884;2022-12-29T06:19:13;5.28;;;1.00;;
66721;SDS011;53633;49.932;10.884;2022-12-29T06:21:40;4.22;;;0.88;;
66721;SDS011;53633;49.932;10.884;2022-12-29T06:24:08;4.73;;;1.20;;
66721;SDS011;53633;49.932;10.884;2022-12-29T06:26:35;9.20;;;1.50;;
66721;SDS011;53633;49.932;10.884;2022-12-29T06:29:02;5.38;;;1.27;;
66721;SDS011;53633;49.932;10.884;2022-12-29T06:31:28;7.90;;;1.52;;
66721;SDS011;53633;49.932;10.884;2022-12-29T06:33:55;5.53;;;1.40;;
66721;SDS011;53633;49.932;10.884;2022-12-29T06:36:22;4.00;;;1.00;;
66721;SDS011;53633;49.932;10.884;2022-12-29T06:38:49;4.38;;;1.27;;
66721;SDS011;53633;49.932;10.884;2022-12-29T06:41:17;4.85;;;1.20;;
66721;SDS011;53633;49.932;10.884;2022-12-29T06:43:44;4.35;;;0.90;;
66721;SDS011;53633;49.932;10.884;2022-12-29T06:46:10;4.90;;;1.33;;
66721;SDS011;53633;49.932;10.884;2022-12-29T06:48:37;3.37;;;0.97;;
66721;SDS011;53633;49.932;10.884;2022-12-29T06:51:04;7.95;;;1.10;;
66721;SDS011;53633;49.932;10.884;2022-12-29T06:53:31;4.10;;;0.98;;
66721;SDS011;53633;49.932;10.884;2022-12-29T06:55:57;4.75;;;1.10;;
66721;SDS011;53633;49.932;10.884;2022-12-29T06:58:25;4.00;;;0.80;;
66721;SDS011;53633;49.932;10.884;2022-12-29T07:00:52;3.30;;;0.73;;
66721;SDS011;53633;49.932;10.884;2022-12-29T07:03:19;2.92;;;0.75;;
66721;SDS011;53633;49.932;10.884;2022-12-29T07:05:46;5.70;;;1.33;;
66721;SDS011;53633;49.932;10.884;2022-12-29T07:08:12;3.53;;;0.93;;
66721;SDS011;53633;49.932;10.884;2022-12-29T07:10:41;4.38;;;0.93;;
66721;SDS011;53633;49.932;10.884;2022-12-29T07:13:07;3.57;;;0.80;;
66721;SDS011;53633;49.932;10.884;2022-12-29T07:15:36;3.38;;;0.80;;
66721;SDS011;53633;49.932;10.884;2022-12-29T07:18:03;6.38;;;1.00;;
66721;SDS011;53633;49.932;10.884;2022-12-29T07:20:30;4.28;;;1.00;;
66721;SDS011;53633;49.932;10.884;2022-12-29T07:22:57;5.75;;;1.00;;
66721;SDS011;53633;49.932;10.884;2022-12-29T07:25:24;4.20;;;0.93;;
66721;SDS011;53633;49.932;10.884;2022-12-29T07:27:51;2.92;;;0.75;;
66721;SDS011;53633;49.932;10.884;2022-12-29T07:30:17;4.20;;;0.90;;
66721;SDS011;53633;49.932;10.884;2022-12-29T07:32:45;3.20;;;0.70;;
66721;SDS011;53633;49.932;10.884;2022-12-29T07:35:12;6.10;;;1.67;;
66721;SDS011;53633;49.932;10.884;2022-12-29T07:37:39;3.73;;;0.73;;
66721;SDS011;53633;49.932;10.884;2022-12-29T07:40:06;3.33;;;0.90;;
66721;SDS011;53633;49.932;10.884;2022-12-29T07:42:35;2.95;;;0.88;;
66721;SDS011;53633;49.932;10.884;2022-12-29T07:45:02;4.03;;;0.88;;
66721;SDS011;53633;49.932;10.884;2022-12-29T07:47:29;5.32;;;1.10;;
66721;SDS011;53633;49.932;10.884;2022-12-29T07:49:57;3.53;;;0.93;;
66721;SDS011;53633;49.932;10.884;2022-12-29T07:52:24;4.40;;;1.10;;
66721;SDS011;53633;49.932;10.884;2022-12-29T07:54:51;5.80;;;1.20;;
66721;SDS011;53633;49.932;10.884;2022-12-29T07:57:18;4.10;;;1.30;;
66721;SDS011;53633;49.932;10.884;2022-12-29T07:59:44;3.75;;;0.80;;
66721;SDS011;53633;49.932;10.884;2022-12-29T08:02:11;4.57;;;1.00;;
66721;SDS011;53633;49.932;10.884;2022-12-29T08:04:38;5.53;;;1.10;;
66721;SDS011;53633;49.932;10.884;2022-12-29T08:07:06;5.95;;;1.20;;
66721;SDS011;53633;49.932;10.884;2022-12-29T08:09:34;3.95;;;0.85;;
66721;SDS011;53633;49.932;10.884;2022-12-29T08:12:00;3.50;;;0.90;;
66721;SDS011;53633;49.932;10.884;2022-12-29T08:14:27;6.43;;;1.03;;
66721;SDS011;53633;49.932;10.884;2022-12-29T08:16:54;4.55;;;0.95;;
66721;SDS011;53633;49.932;10.884;2022-12-29T08:19:21;5.03;;;0.93;;
66721;SDS011;53633;49.932;10.884;2022-12-29T08:21:47;4.55;;;0.90;;
66721;SDS011;53633;49.932;10.884;2022-12-29T08:24:15;3.35;;;0.90;;
66721;SDS011;53633;49.932;10.884;2022-12-29T08:26:42;3.87;;;0.90;;
66721;SDS011;53633;49.932;10.884;2022-12-29T08:29:09;4.05;;;0.75;;
66721;SDS011;53633;49.932;10.884;2022-12-29T08:31:35;5.88;;;1.02;;
66721;SDS011;53633;49.932;10.884;2022-12-29T08:34:02;4.53;;;0.80;;
66721;SDS011;53633;49.932;10.884;2022-12-29T08:36:30;4.20;;;1.02;;
66721;SDS011;53633;49.932;10.884;2022-12-29T08:38:57;3.33;;;0.73;;
66721;SDS011;53633;49.932;10.884;2022-12-29T08:41:25;4.50;;;0.95;;
66721;SDS011;53633;49.932;10.884;2022-12-29T08:43:52;4.32;;;1.30;;
66721;SDS011;53633;49.932;10.884;2022-12-29T08:46:18;4.53;;;0.90;;
66721;SDS011;53633;49.932;10.884;2022-12-29T08:48:45;4.05;;;0.80;;
66721;SDS011;53633;49.932;10.884;2022-12-29T08:51:12;6.27;;;1.57;;
66721;SDS011;53633;49.932;10.884;2022-12-29T08:53:39;5.43;;;1.40;;
66721;SDS011;53633;49.932;10.884;2022-12-29T08:56:06;7.60;;;1.17;;
66721;SDS011;53633;49.932;10.884;2022-12-29T08:58:36;5.28;;;1.60;;
66721;SDS011;53633;49.932;10.884;2022-12-29T09:01:03;6.38;;;1.13;;
66721;SDS011;53633;49.932;10.884;2022-12-29T09:03:30;3.53;;;0.80;;
66721;SDS011;53633;49.932;10.884;2022-12-29T09:06:17;3.78;;;0.80;;
66721;SDS011;53633;49.932;10.884;2022-12-29T09:08:44;4.13;;;1.17;;
66721;SDS011;53633;49.932;10.884;2022-12-29T09:11:12;4.38;;;0.70;;
66721;SDS011;53633;49.932;10.884;2022-12-29T09:13:42;5.55;;;0.90;;
66721;SDS011;53633;49.932;10.884;2022-12-29T09:16:09;4.20;;;1.00;;
66721;SDS011;53633;49.932;10.884;2022-12-29T09:18:36;5.53;;;0.75;;
66721;SDS011;53633;49.932;10.884;2022-12-29T09:21:03;5.43;;;0.80;;
66721;SDS011;53633;49.932;10.884;2022-12-29T09:23:32;6.10;;;1.05;;
66721;SDS011;53633;49.932;10.884;2022-12-29T09:25:59;4.05;;;1.00;;
66721;SDS011;53633;49.932;10.884;2022-12-29T09:28:26;5.10;;;1.33;;
66721;SDS011;53633;49.932;10.884;2022-12-29T09:30:55;4.20;;;0.90;;
66721;SDS011;53633;49.932;10.884;2022-12-29T09:33:22;3.55;;;0.70;;
66721;SDS011;53633;49.932;10.884;2022-12-29T09:35:50;4.43;;;0.57;;
66721;SDS011;53633;49.932;10.884;2022-12-29T09:38:18;4.57;;;0.88;;
66721;SDS011;53633;49.932;10.884;2022-12-29T09:40:45;5.00;;;0.93;;
66721;SDS011;53633;49.932;10.884;2022-12-29T09:43:23;4.25;;;1.00;;
66721;SDS011;53633;49.932;10.884;2022-12-29T09:46:03;8.38;;;1.10;;
66721;SDS011;53633;49.932;10.884;2022-12-29T09:48:39;4.75;;;0.95;;
66721;SDS011;53633;49.932;10.884;2022-12-29T09:51:11;3.92;;;1.20;;
66721;SDS011;53633;49.932;10.884;2022-12-29T09:53:41;4.93;;;1.10;;
66721;SDS011;53633;49.932;10.884;2022-12-29T09:56:10;5.70;;;1.60;;
66721;SDS011;53633;49.932;10.884;2022-12-29T09:58:42;6.63;;;1.20;;
66721;SDS011;53633;49.932;10.884;2022-12-29T10:01:21;5.82;;;1.25;;
66721;SDS011;53633;49.932;10.884;2022-12-29T10:03:53;5.80;;;1.45;;
66721;SDS011;53633;49.932;10.884;2022-12-29T10:06:23;4.03;;;1.00;;
66721;SDS011;53633;49.932;10.884;2022-12-29T10:08:55;3.67;;;0.73;;
66721;SDS011;53633;49.932;10.884;2022-12-29T10:11:29;4.22;;;1.10;;
66721;SDS011;53633;49.932;10.884;2022-12-29T10:14:13;3.58;;;0.95;;
66721;SDS011;53633;49.932;10.884;2022-12-29T10:16:54;4.00;;;0.80;;
66721;SDS011;53633;49.932;10.884;2022-12-29T10:19:32;6.53;;;1.10;;
66721;SDS011;53633;49.932;10.884;2022-12-29T10:22:09;3.55;;;0.80;;
66721;SDS011;53633;49.932;10.884;2022-12-29T10:24:47;6.10;;;0.80;;
66721;SDS011;53633;49.932;10.884;2022-12-29T10:27:17;7.45;;;1.02;;
66721;SDS011;53633;49.932;10.884;2022-12-29T10:29:45;6.43;;;1.00;;
66721;SDS011;53633;49.932;10.884;2022-12-29T10:32:21;6.17;;;1.20;;
66721;SDS011;53633;49.932;10.884;2022-12-29T10:34:55;4.45;;;1.20;;
66721;SDS011;53633;49.932;10.884;2022-12-29T10:37:27;5.43;;;1.10;;
66721;SDS011;53633;49.932;10.884;2022-12-29T10:39:59;3.65;;;0.98;;
66721;SDS011;53633;49.932;10.884;2022-12-29T10:42:39;4.75;;;0.80;;
66721;SDS011;53633;49.932;10.884;2022-12-29T10:45:10;3.83;;;0.90;;
66721;SDS011;53633;49.932;10.884;2022-12-29T10:47:42;5.20;;;1.08;;
66721;SDS011;53633;49.932;10.884;2022-12-29T10:50:17;4.43;;;1.02;;
66721;SDS011;53633;49.932;10.884;2022-12-29T10:52:45;5.10;;;1.05;;
66721;SDS011;53633;49.932;10.884;2022-12-29T10:55:13;4.93;;;1.20;;
66721;SDS011;53633;49.932;10.884;2022-12-29T10:57:44;3.83;;;0.90;;
66721;SDS011;53633;49.932;10.884;2022-12-29T11:00:12;6.65;;;1.10;;
66721;SDS011;53633;49.932;10.884;2022-12-29T11:02:49;6.60;;;1.40;;
66721;SDS011;53633;49.932;10.884;2022-12-29T11:05:33;5.75;;;1.10;;
66721;SDS011;53633;49.932;10.884;2022-12-29T11:08:04;4.88;;;1.00;;
66721;SDS011;53633;49.932;10.884;2022-12-29T11:10:37;5.43;;;1.27;;
66721;SDS011;53633;49.932;10.884;2022-12-29T11:13:10;5.40;;;1.20;;
66721;SDS011;53633;49.932;10.884;2022-12-29T11:15:39;7.68;;;1.40;;
66721;SDS011;53633;49.932;10.884;2022-12-29T11:18:16;5.28;;;1.40;;
66721;SDS011;53633;49.932;10.884;2022-12-29T11:20:45;6.93;;;1.23;;
66721;SDS011;53633;49.932;10.884;2022-12-29T11:23:21;4.03;;;1.03;;
66721;SDS011;53633;49.932;10.884;2022-12-29T11:26:07;4.22;;;1.08;;
66721;SDS011;53633;49.932;10.884;2022-12-29T11:28:40;5.00;;;1.30;;
66721;SDS011;53633;49.932;10.884;2022-12-29T11:31:08;9.05;;;1.65;;
66721;SDS011;53633;49.932;10.884;2022-12-29T11:33:38;9.68;;;1.88;;
66721;SDS011;53633;49.932;10.884;2022-12-29T11:36:06;6.83;;;1.40;;
66721;SDS011;53633;49.932;10.884;2022-12-29T11:38:35;5.05;;;1.20;;
66721;SDS011;53633;49.932;10.884;2022-12-29T11:41:03;7.18;;;1.77;;
66721;SDS011;53633;49.932;10.884;2022-12-29T11:43:32;7.15;;;1.20;;
66721;SDS011;53633;49.932;10.884;2022-12-29T11:46:03;7.05;;;1.30;;
66721;SDS011;53633;49.932;10.884;2022-12-29T11:48:32;6.70;;;2.03;;
66721;SDS011;53633;49.932;10.884;2022-12-29T11:51:06;6.20;;;1.35;;
66721;SDS011;53633;49.932;10.884;2022-12-29T11:53:36;8.60;;;2.42;;
66721;SDS011;53633;49.932;10.884;2022-12-29T11:56:06;7.72;;;2.25;;
66721;SDS011;53633;49.932;10.884;2022-12-29T11:58:37;15.32;;;4.50;;
66721;SDS011;53633;49.932;10.884;2022-12-29T12:01:05;15.70;;;3.20;;
66721;SDS011;53633;49.932;10.884;2022-12-29T12:03:34;5.53;;;1.90;;
66721;SDS011;53633;49.932;10.884;2022-12-29T12:06:07;4.97;;;1.30;;
66721;SDS011;53633;49.932;10.884;2022-12-29T12:08:41;6.38;;;2.20;;
66721;SDS011;53633;49.932;10.884;2022-12-29T12:11:12;5.13;;;1.30;;
66721;SDS011;53633;49.932;10.884;2022-12-29T12:13:43;5.07;;;1.00;;
66721;SDS011;53633;49.932;10.884;2022-12-29T12:16:17;5.07;;;1.27;;
66721;SDS011;53633;49.932;10.884;2022-12-29T12:18:47;4.53;;;1.10;;
66721;SDS011;53633;49.932;10.884;2022-12-29T12:21:23;4.57;;;1.05;;
66721;SDS011;53633;49.932;10.884;2022-12-29T12:23:59;4.28;;;1.00;;
66721;SDS011;53633;49.932;10.884;2022-12-29T12:26:37;6.07;;;1.40;;
66721;SDS011;53633;49.932;10.884;2022-12-29T12:29:12;7.57;;;2.00;;
66721;SDS011;53633;49.932;10.884;2022-12-29T12:31:45;10.57;;;2.70;;
66721;SDS011;53633;49.932;10.884;2022-12-29T12:34:17;10.18;;;3.25;;
66721;SDS011;53633;49.932;10.884;2022-12-29T12:39:44;9.27;;;2.43;;
66721;SDS011;53633;49.932;10.884;2022-12-29T12:42:25;7.63;;;1.70;;
66721;SDS011;53633;49.932;10.884;2022-12-29T12:47:59;8.85;;;2.88;;
66721;SDS011;53633;49.932;10.884;2022-12-29T12:50:40;5.15;;;1.70;;
66721;SDS011;53633;49.932;10.884;2022-12-29T12:56:18;6.03;;;1.50;;
66721;SDS011;53633;49.932;10.884;2022-12-29T12:58:54;5.80;;;1.20;;
66721;SDS011;53633;49.932;10.884;2022-12-29T13:01:37;5.75;;;1.48;;
66721;SDS011;53633;49.932;10.884;2022-12-29T13:04:15;4.55;;;0.98;;
66721;SDS011;53633;49.932;10.884;2022-12-29T13:06:54;5.50;;;1.20;;
66721;SDS011;53633;49.932;10.884;2022-12-29T13:09:32;6.47;;;1.20;;
66721;SDS011;53633;49.932;10.884;2022-12-29T13:12:11;4.63;;;1.33;;
66721;SDS011;53633;49.932;10.884;2022-12-29T13:14:48;7.60;;;1.65;;
66721;SDS011;53633;49.932;10.884;2022-12-29T13:17:26;4.80;;;1.40;;
66721;SDS011;53633;49.932;10.884;2022-12-29T13:20:00;5.60;;;1.30;;
66721;SDS011;53633;49.932;10.884;2022-12-29T13:22:32;4.43;;;1.23;;
66721;SDS011;53633;49.932;10.884;2022-12-29T13:25:13;5.28;;;1.88;;
66721;SDS011;53633;49.932;10.884;2022-12-29T13:27:49;6.07;;;1.80;;
66721;SDS011;53633;49.932;10.884;2022-12-29T13:30:20;5.78;;;1.38;;
66721;SDS011;53633;49.932;10.884;2022-12-29T13:32:53;5.07;;;1.10;;
66721;SDS011;53633;49.932;10.884;2022-12-29T13:35:29;5.07;;;1.23;;
66721;SDS011;53633;49.932;10.884;2022-12-29T13:38:05;5.05;;;1.45;;
66721;SDS011;53633;49.932;10.884;2022-12-29T13:40:40;7.07;;;2.05;;
66721;SDS011;53633;49.932;10.884;2022-12-29T13:43:09;4.30;;;1.10;;
66721;SDS011;53633;49.932;10.884;2022-12-29T13:45:38;5.63;;;1.40;;
66721;SDS011;53633;49.932;10.884;2022-12-29T13:48:09;6.65;;;1.60;;
66721;SDS011;53633;49.932;10.884;2022-12-29T13:50:40;4.38;;;1.30;;
66721;SDS011;53633;49.932;10.884;2022-12-29T13:53:10;3.42;;;1.10;;
66721;SDS011;53633;49.932;10.884;2022-12-29T13:55:45;5.85;;;1.20;;
66721;SDS011;53633;49.932;10.884;2022-12-29T13:58:18;6.33;;;1.30;;
66721;SDS011;53633;49.932;10.884;2022-12-29T14:00:53;5.15;;;1.80;;
66721;SDS011;53633;49.932;10.884;2022-12-29T14:03:40;7.13;;;2.28;;
66721;SDS011;53633;49.932;10.884;2022-12-29T14:06:13;8.10;;;2.97;;
66721;SDS011;53633;49.932;10.884;2022-12-29T14:08:42;9.93;;;3.10;;
66721;SDS011;53633;49.932;10.884;2022-12-29T14:11:11;7.13;;;2.00;;
66721;SDS011;53633;49.932;10.884;2022-12-29T14:13:42;5.28;;;1.70;;
66721;SDS011;53633;49.932;10.884;2022-12-29T14:16:12;6.65;;;2.03;;
66721;SDS011;53633;49.932;10.884;2022-12-29T14:18:52;6.35;;;1.45;;
66721;SDS011;53633;49.932;10.884;2022-12-29T14:21:21;6.63;;;1.83;;
66721;SDS011;53633;49.932;10.884;2022-12-29T14:23:50;7.40;;;2.03;;
66721;SDS011;53633;49.932;10.884;2022-12-29T14:26:32;6.18;;;1.88;;
66721;SDS011;53633;49.932;10.884;2022-12-29T14:29:22;5.13;;;1.30;;
66721;SDS011;53633;49.932;10.884;2022-12-29T14:38:06;5.83;;;1.60;;
66721;SDS011;53633;49.932;10.884;2022-12-29T14:40:41;6.22;;;1.70;;
66721;SDS011;53633;49.932;10.884;2022-12-29T14:43:11;5.38;;;1.10;;
66721;SDS011;53633;49.932;10.884;2022-12-29T14:45:41;4.78;;;0.85;;
66721;SDS011;53633;49.932;10.884;2022-12-29T14:48:21;4.18;;;0.90;;
66721;SDS011;53633;49.932;10.884;2022-12-29T14:50:56;5.17;;;0.80;;
66721;SDS011;53633;49.932;10.884;2022-12-29T14:53:43;5.32;;;1.10;;
66721;SDS011;53633;49.932;10.884;2022-12-29T14:56:11;5.38;;;1.38;;
66721;SDS011;53633;49.932;10.884;2022-12-29T14:58:42;6.18;;;1.77;;
66721;SDS011;53633;49.932;10.884;2022-12-29T15:04:03;4.07;;;0.80;;
66721;SDS011;53633;49.932;10.884;2022-12-29T15:06:39;6.05;;;1.15;;
66721;SDS011;53633;49.932;10.884;2022-12-29T15:09:10;8.18;;;2.13;;
66721;SDS011;53633;49.932;10.884;2022-12-29T15:11:47;6.13;;;2.00;;
66721;SDS011;53633;49.932;10.884;2022-12-29T15:14:29;7.20;;;2.03;;
66721;SDS011;53633;49.932;10.884;2022-12-29T15:17:00;7.63;;;1.60;;